Adams Center, NY

2:44 PM EDT on September 01, 2014 (GMT -0400)
Windsong dairy | Change Station
CLOSE
Current Station
Personal Weather Station
Location: Adams Center, NY
Elevation: 810 ft
Nearby Weather Stations

Elev 810 ft 43.88 °N, 75.95 °W | Updated 58 seconds ago

Partly Cloudy
Partly Cloudy
82.9 °F
Feels Like 88 °F
N
3.0
Wind Variable Wind from South

Today
High -- | Low -- °F
--% Chance of Precip.
Yesterday
High -- | Low -- °F
Precip. -- in
6:27 AM 7:39 PM
Waxing Crescent, 43% visible
Pressure 29.92 in
Visibility 8.0 miles
Clouds Few 2200 ft
Heat Index 88 °F
Dew Point 71 °F
Humidity 68%
Rainfall 0.00 in
Snow Depth Not available.
UV 8 out of 12
Pollen 7.30 out of 12
Air Quality Not available.
Flu Activity Not available.
METAR KART 011756Z AUTO 27009KT 8SM FEW022 27/20 A2994 RMK AO2 SLP132 T02670200 10267 20211 58011

More Conditions Fewer Conditions

Pressure 29.92 in
Visibility 8.0 miles
Clouds Few 2200 ft
Heat Index 88 °F
Dew Point 71 °F
Humidity 68%
Rainfall 0.00 in
Snow Depth Not available.
UV 8 out of 12
Pollen 7.30 out of 12
Air Quality Not available.
Flu Activity Not available.
METAR KART 011756Z AUTO 27009KT 8SM FEW022 27/20 A2994 RMK AO2 SLP132 T02670200 10267 20211 58011

More Conditions Fewer Conditions

10-Day Weather Forecast

Almanac

Astronomy

Sep. 01, 2014 Rise Set
Actual Time 6:27 AM EDT 7:39 PM EDT
Civil Twilight 5:57 AM EDT 8:09 PM EDT
Nautical Twilight 5:22 AM EDT 8:44 PM EDT
Astronomical Twilight 4:44 AM EDT 9:22 PM EDT
Moon 1:24 PM EDT 11:25 PM EDT
Length of Visible Light 14h 11m
Length of Day
13h 12m
Tomorrow will be 2m 54s shorter.
Waxing Crescent, 43% of the Moon is Illuminated
Today
Waxing Crescent
Sep 2
First Quarter
Sep 8
Full
Sep 15
Last Quarter
Sep 24
New

Today's Extremes

State Highs State Lows

Community

WunderPhotos

Upload Photos

1,749,359 photos uploaded!

Nearby

Air Quality

  Air Quality AQ Index Pollutant
Monday Moderate
OZONE
Monday Moderate
PM2.5
Tuesday Good
PM2.5
Tuesday Good
OZONE

Snow Depth

Station Depth Elevation
No new snow has been reported.

Earthquake Activity

City Distance Mag. Time & Date
No recent earthquake activity has been reported nearby.
Minimum magnitude displayed is 2.5.

Coastal Water Temperatures

Place Temperature
Alexandria Bay, NY 69.1 °F
Ogdensburg, NY 64.9 °F

Nearby Weather Stations